sensor_id;sensor_type;location;lat;lon;timestamp;temperature;humidity
74364;DHT22;62797;49.740;10.154;2023-02-01T00:01:53;4.30;73.20
74364;DHT22;62797;49.740;10.154;2023-02-01T00:04:19;4.30;73.30
74364;DHT22;62797;49.740;10.154;2023-02-01T00:06:44;4.30;73.60
74364;DHT22;62797;49.740;10.154;2023-02-01T00:09:10;4.30;73.30
74364;DHT22;62797;49.740;10.154;2023-02-01T00:11:35;4.40;72.80
74364;DHT22;62797;49.740;10.154;2023-02-01T00:14:01;4.40;72.90
74364;DHT22;62797;49.740;10.154;2023-02-01T00:16:29;4.40;72.80
74364;DHT22;62797;49.740;10.154;2023-02-01T00:19:08;4.40;74.00
74364;DHT22;62797;49.740;10.154;2023-02-01T00:21:35;4.30;74.30
74364;DHT22;62797;49.740;10.154;2023-02-01T00:24:00;4.20;75.10
74364;DHT22;62797;49.740;10.154;2023-02-01T00:26:35;4.20;75.20
74364;DHT22;62797;49.740;10.154;2023-02-01T00:29:03;4.20;75.10
74364;DHT22;62797;49.740;10.154;2023-02-01T00:31:29;4.20;75.50
74364;DHT22;62797;49.740;10.154;2023-02-01T00:33:54;4.20;75.20
74364;DHT22;62797;49.740;10.154;2023-02-01T00:36:20;4.20;75.30
74364;DHT22;62797;49.740;10.154;2023-02-01T00:38:45;4.20;75.50
74364;DHT22;62797;49.740;10.154;2023-02-01T00:41:16;4.20;76.20
74364;DHT22;62797;49.740;10.154;2023-02-01T00:43:43;4.20;75.60
74364;DHT22;62797;49.740;10.154;2023-02-01T00:46:10;4.20;75.70
74364;DHT22;62797;49.740;10.154;2023-02-01T00:48:35;4.20;75.60
74364;DHT22;62797;49.740;10.154;2023-02-01T00:51:06;4.30;74.80
74364;DHT22;62797;49.740;10.154;2023-02-01T00:53:33;4.20;75.60
74364;DHT22;62797;49.740;10.154;2023-02-01T00:55:58;4.20;75.20
74364;DHT22;62797;49.740;10.154;2023-02-01T00:58:24;4.20;75.30
74364;DHT22;62797;49.740;10.154;2023-02-01T01:01:51;4.20;75.40
74364;DHT22;62797;49.740;10.154;2023-02-01T01:03:56;4.20;75.20
74364;DHT22;62797;49.740;10.154;2023-02-01T01:06:28;4.20;75.30
74364;DHT22;62797;49.740;10.154;2023-02-01T01:08:56;4.20;75.20
74364;DHT22;62797;49.740;10.154;2023-02-01T01:11:28;4.20;75.00
74364;DHT22;62797;49.740;10.154;2023-02-01T01:13:55;4.20;75.00
74364;DHT22;62797;49.740;10.154;2023-02-01T01:16:22;4.30;74.50
74364;DHT22;62797;49.740;10.154;2023-02-01T01:18:48;4.30;74.60
74364;DHT22;62797;49.740;10.154;2023-02-01T01:21:15;4.30;74.00
74364;DHT22;62797;49.740;10.154;2023-02-01T01:23:42;4.30;74.30
74364;DHT22;62797;49.740;10.154;2023-02-01T01:26:10;4.20;74.50
74364;DHT22;62797;49.740;10.154;2023-02-01T01:28:35;4.20;75.10
74364;DHT22;62797;49.740;10.154;2023-02-01T01:31:02;4.20;74.50
74364;DHT22;62797;49.740;10.154;2023-02-01T01:33:27;4.30;74.70
74364;DHT22;62797;49.740;10.154;2023-02-01T01:35:53;4.30;73.80
74364;DHT22;62797;49.740;10.154;2023-02-01T01:38:19;4.30;74.40
74364;DHT22;62797;49.740;10.154;2023-02-01T01:40:46;4.30;74.30
74364;DHT22;62797;49.740;10.154;2023-02-01T01:43:17;4.40;73.80
74364;DHT22;62797;49.740;10.154;2023-02-01T01:45:43;4.40;73.70
74364;DHT22;62797;49.740;10.154;2023-02-01T01:48:24;4.40;73.50
74364;DHT22;62797;49.740;10.154;2023-02-01T01:50:56;4.40;73.20
74364;DHT22;62797;49.740;10.154;2023-02-01T01:53:38;4.30;73.60
74364;DHT22;62797;49.740;10.154;2023-02-01T01:56:06;4.30;73.80
74364;DHT22;62797;49.740;10.154;2023-02-01T01:58:33;4.30;74.30
74364;DHT22;62797;49.740;10.154;2023-02-01T02:00:59;4.30;74.10
74364;DHT22;62797;49.740;10.154;2023-02-01T02:03:44;4.30;74.10
74364;DHT22;62797;49.740;10.154;2023-02-01T02:06:18;4.40;73.90
74364;DHT22;62797;49.740;10.154;2023-02-01T02:08:45;4.40;73.70
74364;DHT22;62797;49.740;10.154;2023-02-01T02:11:14;4.50;72.40
74364;DHT22;62797;49.740;10.154;2023-02-01T02:13:43;4.50;72.70
74364;DHT22;62797;49.740;10.154;2023-02-01T02:22:09;4.50;72.80
74364;DHT22;62797;49.740;10.154;2023-02-01T02:33:47;4.40;72.90
74364;DHT22;62797;49.740;10.154;2023-02-01T02:36:19;4.40;73.10
74364;DHT22;62797;49.740;10.154;2023-02-01T02:39:03;4.40;72.10
74364;DHT22;62797;49.740;10.154;2023-02-01T02:45:12;4.40;72.10
74364;DHT22;62797;49.740;10.154;2023-02-01T02:48:22;4.40;71.90
74364;DHT22;62797;49.740;10.154;2023-02-01T02:54:09;4.40;72.50
74364;DHT22;62797;49.740;10.154;2023-02-01T02:56:56;4.40;71.60
74364;DHT22;62797;49.740;10.154;2023-02-01T02:59:43;4.30;72.70
74364;DHT22;62797;49.740;10.154;2023-02-01T03:02:28;4.30;72.40
74364;DHT22;62797;49.740;10.154;2023-02-01T03:05:13;4.40;72.40
74364;DHT22;62797;49.740;10.154;2023-02-01T03:12:53;4.40;72.70
74364;DHT22;62797;49.740;10.154;2023-02-01T03:15:52;4.40;73.20
74364;DHT22;62797;49.740;10.154;2023-02-01T03:18:46;4.30;74.00
74364;DHT22;62797;49.740;10.154;2023-02-01T03:23:57;4.20;75.00
74364;DHT22;62797;49.740;10.154;2023-02-01T03:26:26;4.20;75.60
74364;DHT22;62797;49.740;10.154;2023-02-01T03:28:57;4.20;75.10
74364;DHT22;62797;49.740;10.154;2023-02-01T03:31:24;4.20;75.70
74364;DHT22;62797;49.740;10.154;2023-02-01T03:33:50;4.20;75.90
74364;DHT22;62797;49.740;10.154;2023-02-01T03:42:01;4.10;78.10
74364;DHT22;62797;49.740;10.154;2023-02-01T03:44:34;4.00;78.90
74364;DHT22;62797;49.740;10.154;2023-02-01T03:47:25;4.10;78.90
74364;DHT22;62797;49.740;10.154;2023-02-01T03:49:56;4.10;77.60
74364;DHT22;62797;49.740;10.154;2023-02-01T03:52:26;4.10;78.30
74364;DHT22;62797;49.740;10.154;2023-02-01T03:54:53;4.10;78.20
74364;DHT22;62797;49.740;10.154;2023-02-01T03:57:25;4.20;78.00
74364;DHT22;62797;49.740;10.154;2023-02-01T03:59:52;4.10;78.20
74364;DHT22;62797;49.740;10.154;2023-02-01T04:02:18;4.10;78.30
74364;DHT22;62797;49.740;10.154;2023-02-01T04:04:43;4.10;78.80
74364;DHT22;62797;49.740;10.154;2023-02-01T04:07:09;4.10;78.70
74364;DHT22;62797;49.740;10.154;2023-02-01T04:09:35;4.10;78.60
74364;DHT22;62797;49.740;10.154;2023-02-01T04:12:00;4.10;79.20
74364;DHT22;62797;49.740;10.154;2023-02-01T04:14:26;4.10;79.90
74364;DHT22;62797;49.740;10.154;2023-02-01T04:16:51;4.10;78.60
74364;DHT22;62797;49.740;10.154;2023-02-01T04:19:17;4.20;77.50
74364;DHT22;62797;49.740;10.154;2023-02-01T04:21:43;4.10;77.50
74364;DHT22;62797;49.740;10.154;2023-02-01T04:24:09;4.10;78.10
74364;DHT22;62797;49.740;10.154;2023-02-01T04:26:34;4.10;76.80
74364;DHT22;62797;49.740;10.154;2023-02-01T04:29:00;4.00;76.90
74364;DHT22;62797;49.740;10.154;2023-02-01T04:31:25;4.00;76.80
74364;DHT22;62797;49.740;10.154;2023-02-01T04:33:52;3.90;76.50
74364;DHT22;62797;49.740;10.154;2023-02-01T04:36:19;3.90;76.20
74364;DHT22;62797;49.740;10.154;2023-02-01T04:38:48;3.90;75.00
74364;DHT22;62797;49.740;10.154;2023-02-01T04:41:14;3.80;75.30
74364;DHT22;62797;49.740;10.154;2023-02-01T04:43:41;3.80;73.30
74364;DHT22;62797;49.740;10.154;2023-02-01T04:46:06;3.80;72.50
74364;DHT22;62797;49.740;10.154;2023-02-01T04:48:32;3.80;73.60
74364;DHT22;62797;49.740;10.154;2023-02-01T04:50:57;3.70;73.40
74364;DHT22;62797;49.740;10.154;2023-02-01T04:53:23;3.70;73.80
74364;DHT22;62797;49.740;10.154;2023-02-01T04:55:49;3.80;73.50
74364;DHT22;62797;49.740;10.154;2023-02-01T04:58:15;3.70;73.50
74364;DHT22;62797;49.740;10.154;2023-02-01T05:00:41;3.70;73.30
74364;DHT22;62797;49.740;10.154;2023-02-01T05:03:06;3.70;72.90
74364;DHT22;62797;49.740;10.154;2023-02-01T05:05:32;3.80;71.20
74364;DHT22;62797;49.740;10.154;2023-02-01T05:07:57;3.70;73.20
74364;DHT22;62797;49.740;10.154;2023-02-01T05:10:23;3.80;71.70
74364;DHT22;62797;49.740;10.154;2023-02-01T05:12:50;3.80;72.30
74364;DHT22;62797;49.740;10.154;2023-02-01T05:15:34;3.80;72.30
74364;DHT22;62797;49.740;10.154;2023-02-01T05:17:59;3.80;72.90
74364;DHT22;62797;49.740;10.154;2023-02-01T05:20:25;3.80;72.20
74364;DHT22;62797;49.740;10.154;2023-02-01T05:22:51;3.80;72.70
74364;DHT22;62797;49.740;10.154;2023-02-01T05:25:16;3.80;73.00
74364;DHT22;62797;49.740;10.154;2023-02-01T05:27:42;3.80;72.00
74364;DHT22;62797;49.740;10.154;2023-02-01T05:30:08;3.80;72.70
74364;DHT22;62797;49.740;10.154;2023-02-01T05:32:34;3.70;73.80
74364;DHT22;62797;49.740;10.154;2023-02-01T05:35:03;3.70;73.10
74364;DHT22;62797;49.740;10.154;2023-02-01T05:37:30;3.80;73.40
74364;DHT22;62797;49.740;10.154;2023-02-01T05:39:55;3.70;73.30
74364;DHT22;62797;49.740;10.154;2023-02-01T05:42:21;3.80;72.60
74364;DHT22;62797;49.740;10.154;2023-02-01T05:44:46;3.70;71.60
74364;DHT22;62797;49.740;10.154;2023-02-01T05:47:12;3.70;72.00
74364;DHT22;62797;49.740;10.154;2023-02-01T05:49:38;3.70;72.40
74364;DHT22;62797;49.740;10.154;2023-02-01T05:52:03;3.70;72.40
74364;DHT22;62797;49.740;10.154;2023-02-01T05:54:29;3.70;72.00
74364;DHT22;62797;49.740;10.154;2023-02-01T05:56:55;3.70;72.90
74364;DHT22;62797;49.740;10.154;2023-02-01T05:59:20;3.70;72.10
74364;DHT22;62797;49.740;10.154;2023-02-01T06:01:46;3.70;71.90
74364;DHT22;62797;49.740;10.154;2023-02-01T06:04:11;3.70;72.30
74364;DHT22;62797;49.740;10.154;2023-02-01T06:06:37;3.70;73.30
74364;DHT22;62797;49.740;10.154;2023-02-01T06:09:03;3.60;73.20
74364;DHT22;62797;49.740;10.154;2023-02-01T06:11:29;3.60;73.70
74364;DHT22;62797;49.740;10.154;2023-02-01T06:13:55;3.60;73.70
74364;DHT22;62797;49.740;10.154;2023-02-01T06:16:21;3.60;74.00
74364;DHT22;62797;49.740;10.154;2023-02-01T06:18:47;3.60;73.60
74364;DHT22;62797;49.740;10.154;2023-02-01T06:21:12;3.60;74.30
74364;DHT22;62797;49.740;10.154;2023-02-01T06:23:40;3.60;74.30
74364;DHT22;62797;49.740;10.154;2023-02-01T06:26:06;3.50;74.60
74364;DHT22;62797;49.740;10.154;2023-02-01T06:28:35;3.60;74.50
74364;DHT22;62797;49.740;10.154;2023-02-01T06:31:04;3.60;75.00
74364;DHT22;62797;49.740;10.154;2023-02-01T06:33:32;3.60;74.50
74364;DHT22;62797;49.740;10.154;2023-02-01T06:36:00;3.60;74.90
74364;DHT22;62797;49.740;10.154;2023-02-01T06:38:26;3.60;75.30
74364;DHT22;62797;49.740;10.154;2023-02-01T06:40:53;3.60;75.40
74364;DHT22;62797;49.740;10.154;2023-02-01T06:43:20;3.60;75.40
74364;DHT22;62797;49.740;10.154;2023-02-01T06:45:46;3.50;75.80
74364;DHT22;62797;49.740;10.154;2023-02-01T06:48:11;3.50;75.40
74364;DHT22;62797;49.740;10.154;2023-02-01T06:50:37;3.50;76.10
74364;DHT22;62797;49.740;10.154;2023-02-01T06:53:03;3.50;76.10
74364;DHT22;62797;49.740;10.154;2023-02-01T06:55:28;3.50;76.20
74364;DHT22;62797;49.740;10.154;2023-02-01T06:57:54;3.50;75.80
74364;DHT22;62797;49.740;10.154;2023-02-01T07:00:21;3.40;76.20
74364;DHT22;62797;49.740;10.154;2023-02-01T07:02:47;3.40;76.20
74364;DHT22;62797;49.740;10.154;2023-02-01T07:05:12;3.40;76.50
74364;DHT22;62797;49.740;10.154;2023-02-01T07:07:38;3.40;76.80
74364;DHT22;62797;49.740;10.154;2023-02-01T07:10:03;3.50;76.20
74364;DHT22;62797;49.740;10.154;2023-02-01T07:12:29;3.60;76.30
74364;DHT22;62797;49.740;10.154;2023-02-01T07:14:55;3.50;76.30
74364;DHT22;62797;49.740;10.154;2023-02-01T07:17:21;3.50;76.10
74364;DHT22;62797;49.740;10.154;2023-02-01T07:19:47;3.60;75.90
74364;DHT22;62797;49.740;10.154;2023-02-01T07:22:12;3.60;75.80
74364;DHT22;62797;49.740;10.154;2023-02-01T07:24:38;3.50;75.80
74364;DHT22;62797;49.740;10.154;2023-02-01T07:27:04;3.60;75.70
74364;DHT22;62797;49.740;10.154;2023-02-01T07:29:29;3.60;75.60
74364;DHT22;62797;49.740;10.154;2023-02-01T07:31:55;3.60;75.60
74364;DHT22;62797;49.740;10.154;2023-02-01T07:34:20;3.50;76.10
74364;DHT22;62797;49.740;10.154;2023-02-01T07:36:46;3.60;75.40
74364;DHT22;62797;49.740;10.154;2023-02-01T07:39:11;3.70;74.90
74364;DHT22;62797;49.740;10.154;2023-02-01T07:41:37;3.70;75.00
74364;DHT22;62797;49.740;10.154;2023-02-01T07:44:03;3.90;74.40
74364;DHT22;62797;49.740;10.154;2023-02-01T07:46:28;3.80;74.00
74364;DHT22;62797;49.740;10.154;2023-02-01T07:48:54;3.90;74.60
74364;DHT22;62797;49.740;10.154;2023-02-01T07:51:20;4.00;73.80
74364;DHT22;62797;49.740;10.154;2023-02-01T07:53:46;4.00;74.10
74364;DHT22;62797;49.740;10.154;2023-02-01T07:56:14;4.10;74.10
74364;DHT22;62797;49.740;10.154;2023-02-01T07:58:40;4.10;73.30
74364;DHT22;62797;49.740;10.154;2023-02-01T08:01:05;4.10;73.10
74364;DHT22;62797;49.740;10.154;2023-02-01T08:03:57;4.10;73.30
74364;DHT22;62797;49.740;10.154;2023-02-01T08:06:24;4.10;73.50
74364;DHT22;62797;49.740;10.154;2023-02-01T08:08:51;4.10;73.80
74364;DHT22;62797;49.740;10.154;2023-02-01T08:11:18;4.20;74.10
74364;DHT22;62797;49.740;10.154;2023-02-01T08:13:43;4.30;73.50
74364;DHT22;62797;49.740;10.154;2023-02-01T08:16:11;4.30;73.40
74364;DHT22;62797;49.740;10.154;2023-02-01T08:18:37;4.40;71.60
74364;DHT22;62797;49.740;10.154;2023-02-01T08:23:38;4.40;70.50
74364;DHT22;62797;49.740;10.154;2023-02-01T08:26:24;4.40;71.40
74364;DHT22;62797;49.740;10.154;2023-02-01T08:28:56;4.40;70.50
74364;DHT22;62797;49.740;10.154;2023-02-01T08:31:23;4.50;69.50
74364;DHT22;62797;49.740;10.154;2023-02-01T08:33:51;4.40;70.30
74364;DHT22;62797;49.740;10.154;2023-02-01T08:36:17;4.40;69.10
74364;DHT22;62797;49.740;10.154;2023-02-01T08:38:43;4.40;69.00
74364;DHT22;62797;49.740;10.154;2023-02-01T08:41:11;4.40;69.10
74364;DHT22;62797;49.740;10.154;2023-02-01T08:43:40;4.40;69.00
74364;DHT22;62797;49.740;10.154;2023-02-01T08:46:06;4.40;68.80
74364;DHT22;62797;49.740;10.154;2023-02-01T08:48:33;4.50;68.40
74364;DHT22;62797;49.740;10.154;2023-02-01T08:51:04;4.60;66.80
74364;DHT22;62797;49.740;10.154;2023-02-01T08:53:30;4.70;66.40
74364;DHT22;62797;49.740;10.154;2023-02-01T08:55:55;4.70;66.10
74364;DHT22;62797;49.740;10.154;2023-02-01T08:58:21;4.90;66.20
74364;DHT22;62797;49.740;10.154;2023-02-01T09:00:47;4.90;63.80
74364;DHT22;62797;49.740;10.154;2023-02-01T09:03:14;5.10;64.70
74364;DHT22;62797;49.740;10.154;2023-02-01T09:05:39;5.10;62.50
74364;DHT22;62797;49.740;10.154;2023-02-01T09:08:06;5.30;61.70
74364;DHT22;62797;49.740;10.154;2023-02-01T09:10:32;5.40;60.40
74364;DHT22;62797;49.740;10.154;2023-02-01T09:12:57;5.50;58.00
74364;DHT22;62797;49.740;10.154;2023-02-01T09:15:23;5.60;57.80
74364;DHT22;62797;49.740;10.154;2023-02-01T09:17:49;5.60;55.60
74364;DHT22;62797;49.740;10.154;2023-02-01T09:20:14;5.60;56.50
74364;DHT22;62797;49.740;10.154;2023-02-01T09:22:40;5.60;55.70
74364;DHT22;62797;49.740;10.154;2023-02-01T09:25:07;5.60;57.00
74364;DHT22;62797;49.740;10.154;2023-02-01T09:27:33;5.60;57.30
74364;DHT22;62797;49.740;10.154;2023-02-01T09:29:59;5.60;57.50
74364;DHT22;62797;49.740;10.154;2023-02-01T09:32:24;5.60;57.50
74364;DHT22;62797;49.740;10.154;2023-02-01T09:34:51;5.50;56.50
74364;DHT22;62797;49.740;10.154;2023-02-01T09:37:17;5.60;56.50
74364;DHT22;62797;49.740;10.154;2023-02-01T09:39:43;5.50;56.50
74364;DHT22;62797;49.740;10.154;2023-02-01T09:47:35;5.60;55.50
74364;DHT22;62797;49.740;10.154;2023-02-01T09:50:18;5.60;55.20
74364;DHT22;62797;49.740;10.154;2023-02-01T09:53:06;5.80;53.20
74364;DHT22;62797;49.740;10.154;2023-02-01T09:55:43;6.00;50.10
74364;DHT22;62797;49.740;10.154;2023-02-01T10:00:59;6.10;49.70
74364;DHT22;62797;49.740;10.154;2023-02-01T10:03:28;6.00;49.80
74364;DHT22;62797;49.740;10.154;2023-02-01T10:11:41;6.00;47.20
74364;DHT22;62797;49.740;10.154;2023-02-01T10:14:40;6.10;47.20
74364;DHT22;62797;49.740;10.154;2023-02-01T10:23:24;6.00;49.00
74364;DHT22;62797;49.740;10.154;2023-02-01T10:26:10;5.90;49.80
74364;DHT22;62797;49.740;10.154;2023-02-01T10:28:38;5.90;49.60
74364;DHT22;62797;49.740;10.154;2023-02-01T10:31:05;5.80;49.60
74364;DHT22;62797;49.740;10.154;2023-02-01T10:33:34;6.00;48.60
74364;DHT22;62797;49.740;10.154;2023-02-01T10:36:27;6.00;48.60
74364;DHT22;62797;49.740;10.154;2023-02-01T10:38:49;6.00;47.50
74364;DHT22;62797;49.740;10.154;2023-02-01T10:41:17;6.20;47.90
74364;DHT22;62797;49.740;10.154;2023-02-01T10:43:44;6.10;45.60
74364;DHT22;62797;49.740;10.154;2023-02-01T10:46:10;6.20;45.50
74364;DHT22;62797;49.740;10.154;2023-02-01T10:48:37;6.40;45.20
74364;DHT22;62797;49.740;10.154;2023-02-01T10:51:16;6.50;44.90
74364;DHT22;62797;49.740;10.154;2023-02-01T10:53:55;6.70;42.90
74364;DHT22;62797;49.740;10.154;2023-02-01T10:56:24;6.70;43.20
74364;DHT22;62797;49.740;10.154;2023-02-01T10:58:50;6.70;42.20
74364;DHT22;62797;49.740;10.154;2023-02-01T11:01:40;6.80;42.50
74364;DHT22;62797;49.740;10.154;2023-02-01T11:04:24;7.00;42.00
74364;DHT22;62797;49.740;10.154;2023-02-01T11:07:22;7.00;41.20
74364;DHT22;62797;49.740;10.154;2023-02-01T11:09:51;6.90;40.50
74364;DHT22;62797;49.740;10.154;2023-02-01T11:12:31;7.00;41.50
74364;DHT22;62797;49.740;10.154;2023-02-01T11:15:00;6.90;40.10
74364;DHT22;62797;49.740;10.154;2023-02-01T11:17:33;6.80;39.60
74364;DHT22;62797;49.740;10.154;2023-02-01T11:20:02;6.60;39.90
74364;DHT22;62797;49.740;10.154;2023-02-01T11:22:28;6.70;40.50
74364;DHT22;62797;49.740;10.154;2023-02-01T11:24:55;6.70;40.00
74364;DHT22;62797;49.740;10.154;2023-02-01T11:27:23;6.70;39.90
74364;DHT22;62797;49.740;10.154;2023-02-01T11:29:52;6.70;40.50
74364;DHT22;62797;49.740;10.154;2023-02-01T11:32:20;6.70;40.60
74364;DHT22;62797;49.740;10.154;2023-02-01T11:34:49;6.70;40.70
74364;DHT22;62797;49.740;10.154;2023-02-01T11:37:20;6.80;39.30
74364;DHT22;62797;49.740;10.154;2023-02-01T11:42:57;6.70;39.00
74364;DHT22;62797;49.740;10.154;2023-02-01T11:45:29;6.70;40.00
74364;DHT22;62797;49.740;10.154;2023-02-01T11:47:57;6.70;39.20
74364;DHT22;62797;49.740;10.154;2023-02-01T11:50:44;6.90;35.80
74364;DHT22;62797;49.740;10.154;2023-02-01T11:58:51;6.70;34.50
74364;DHT22;62797;49.740;10.154;2023-02-01T12:01:39;6.70;33.60
74364;DHT22;62797;49.740;10.154;2023-02-01T12:04:34;6.60;35.80
74364;DHT22;62797;49.740;10.154;2023-02-01T12:07:14;6.70;34.60
74364;DHT22;62797;49.740;10.154;2023-02-01T12:10:25;6.80;34.90
74364;DHT22;62797;49.740;10.154;2023-02-01T12:15:23;7.10;35.50
74364;DHT22;62797;49.740;10.154;2023-02-01T12:18:14;7.00;36.20
74364;DHT22;62797;49.740;10.154;2023-02-01T12:21:26;7.00;36.20
74364;DHT22;62797;49.740;10.154;2023-02-01T12:30:10;6.80;36.30
74364;DHT22;62797;49.740;10.154;2023-02-01T12:32:55;6.70;36.20
74364;DHT22;62797;49.740;10.154;2023-02-01T12:35:37;6.80;36.50
74364;DHT22;62797;49.740;10.154;2023-02-01T12:41:16;6.80;36.40
74364;DHT22;62797;49.740;10.154;2023-02-01T12:44:01;6.80;36.80
74364;DHT22;62797;49.740;10.154;2023-02-01T12:46:37;7.00;35.50
74364;DHT22;62797;49.740;10.154;2023-02-01T12:49:33;7.30;34.00
74364;DHT22;62797;49.740;10.154;2023-02-01T12:52:06;7.20;35.20
74364;DHT22;62797;49.740;10.154;2023-02-01T12:57:15;7.10;35.70
74364;DHT22;62797;49.740;10.154;2023-02-01T13:05:18;6.90;35.20
74364;DHT22;62797;49.740;10.154;2023-02-01T13:08:00;7.00;36.30
74364;DHT22;62797;49.740;10.154;2023-02-01T13:10:51;7.00;36.40
74364;DHT22;62797;49.740;10.154;2023-02-01T13:13:31;7.30;35.40
74364;DHT22;62797;49.740;10.154;2023-02-01T13:16:18;7.30;34.50
74364;DHT22;62797;49.740;10.154;2023-02-01T13:18:50;7.00;35.00
74364;DHT22;62797;49.740;10.154;2023-02-01T13:21:31;7.00;35.80
74364;DHT22;62797;49.740;10.154;2023-02-01T13:23:58;7.10;35.60
74364;DHT22;62797;49.740;10.154;2023-02-01T13:26:25;7.10;35.30
74364;DHT22;62797;49.740;10.154;2023-02-01T13:29:05;7.10;35.20
74364;DHT22;62797;49.740;10.154;2023-02-01T13:34:48;7.00;35.60
74364;DHT22;62797;49.740;10.154;2023-02-01T13:43:22;6.80;35.80
74364;DHT22;62797;49.740;10.154;2023-02-01T13:45:55;7.00;35.00
74364;DHT22;62797;49.740;10.154;2023-02-01T13:48:27;6.80;36.10
74364;DHT22;62797;49.740;10.154;2023-02-01T13:50:56;6.70;35.90
74364;DHT22;62797;49.740;10.154;2023-02-01T13:53:36;6.70;36.30
74364;DHT22;62797;49.740;10.154;2023-02-01T13:56:16;6.70;36.50
74364;DHT22;62797;49.740;10.154;2023-02-01T13:58:44;6.70;36.10
74364;DHT22;62797;49.740;10.154;2023-02-01T14:09:15;6.70;36.20
74364;DHT22;62797;49.740;10.154;2023-02-01T14:11:50;6.60;35.80
74364;DHT22;62797;49.740;10.154;2023-02-01T14:19:36;6.90;35.00
74364;DHT22;62797;49.740;10.154;2023-02-01T14:24:40;6.90;34.60
74364;DHT22;62797;49.740;10.154;2023-02-01T14:29:42;7.10;34.50
74364;DHT22;62797;49.740;10.154;2023-02-01T14:32:20;7.00;34.40
74364;DHT22;62797;49.740;10.154;2023-02-01T14:44:40;6.80;34.80
74364;DHT22;62797;49.740;10.154;2023-02-01T14:47:26;6.90;35.50
74364;DHT22;62797;49.740;10.154;2023-02-01T14:52:49;6.70;36.60
74364;DHT22;62797;49.740;10.154;2023-02-01T14:57:54;6.70;36.00
74364;DHT22;62797;49.740;10.154;2023-02-01T15:00:24;6.80;36.20
74364;DHT22;62797;49.740;10.154;2023-02-01T15:02:51;6.70;37.40
74364;DHT22;62797;49.740;10.154;2023-02-01T15:05:32;6.70;36.60
74364;DHT22;62797;49.740;10.154;2023-02-01T15:08:16;6.80;36.90
74364;DHT22;62797;49.740;10.154;2023-02-01T15:10:45;6.70;35.80
74364;DHT22;62797;49.740;10.154;2023-02-01T15:13:25;6.70;36.20
74364;DHT22;62797;49.740;10.154;2023-02-01T15:16:25;6.70;36.30
74364;DHT22;62797;49.740;10.154;2023-02-01T15:19:07;6.70;35.90
74364;DHT22;62797;49.740;10.154;2023-02-01T15:21:46;6.70;36.20
74364;DHT22;62797;49.740;10.154;2023-02-01T15:24:32;6.80;36.00
74364;DHT22;62797;49.740;10.154;2023-02-01T15:27:04;6.70;36.20
74364;DHT22;62797;49.740;10.154;2023-02-01T15:29:30;6.70;36.60
74364;DHT22;62797;49.740;10.154;2023-02-01T15:31:58;6.50;36.10
74364;DHT22;62797;49.740;10.154;2023-02-01T15:34:44;6.70;36.50
74364;DHT22;62797;49.740;10.154;2023-02-01T15:37:15;6.50;37.10
74364;DHT22;62797;49.740;10.154;2023-02-01T15:42:54;6.60;36.40
74364;DHT22;62797;49.740;10.154;2023-02-01T15:45:22;6.50;36.20
74364;DHT22;62797;49.740;10.154;2023-02-01T15:47:51;6.60;36.80
74364;DHT22;62797;49.740;10.154;2023-02-01T15:50:19;6.60;36.70
74364;DHT22;62797;49.740;10.154;2023-02-01T15:52:47;6.80;35.40
74364;DHT22;62797;49.740;10.154;2023-02-01T15:55:36;6.50;36.70
74364;DHT22;62797;49.740;10.154;2023-02-01T15:58:08;6.60;36.20
74364;DHT22;62797;49.740;10.154;2023-02-01T16:03:27;6.50;37.20
74364;DHT22;62797;49.740;10.154;2023-02-01T16:05:59;6.50;36.70
74364;DHT22;62797;49.740;10.154;2023-02-01T16:08:28;6.30;37.10
74364;DHT22;62797;49.740;10.154;2023-02-01T16:13:34;6.40;37.80
74364;DHT22;62797;49.740;10.154;2023-02-01T16:16:00;6.40;38.30
74364;DHT22;62797;49.740;10.154;2023-02-01T16:18:26;6.30;38.70
74364;DHT22;62797;49.740;10.154;2023-02-01T16:20:51;6.10;39.30
74364;DHT22;62797;49.740;10.154;2023-02-01T16:23:17;6.20;38.70
74364;DHT22;62797;49.740;10.154;2023-02-01T16:25:44;6.10;39.10
74364;DHT22;62797;49.740;10.154;2023-02-01T16:28:09;6.20;38.50
74364;DHT22;62797;49.740;10.154;2023-02-01T16:30:35;6.30;38.50
74364;DHT22;62797;49.740;10.154;2023-02-01T16:33:02;6.20;38.90
74364;DHT22;62797;49.740;10.154;2023-02-01T16:35:36;6.30;38.60
74364;DHT22;62797;49.740;10.154;2023-02-01T16:38:05;6.20;38.90
74364;DHT22;62797;49.740;10.154;2023-02-01T16:40:37;6.20;39.00
74364;DHT22;62797;49.740;10.154;2023-02-01T16:43:12;6.20;39.00
74364;DHT22;62797;49.740;10.154;2023-02-01T16:45:38;6.20;39.30
74364;DHT22;62797;49.740;10.154;2023-02-01T16:48:05;6.20;39.50
74364;DHT22;62797;49.740;10.154;2023-02-01T16:50:32;6.20;39.10
74364;DHT22;62797;49.740;10.154;2023-02-01T16:52:58;6.10;39.50
74364;DHT22;62797;49.740;10.154;2023-02-01T16:55:23;6.20;39.30
74364;DHT22;62797;49.740;10.154;2023-02-01T16:57:49;6.10;39.40
74364;DHT22;62797;49.740;10.154;2023-02-01T17:00:15;6.20;39.10
74364;DHT22;62797;49.740;10.154;2023-02-01T17:02:41;6.20;39.60
74364;DHT22;62797;49.740;10.154;2023-02-01T17:05:08;6.10;40.10
74364;DHT22;62797;49.740;10.154;2023-02-01T17:07:35;6.20;39.40
74364;DHT22;62797;49.740;10.154;2023-02-01T17:10:01;6.00;39.70
74364;DHT22;62797;49.740;10.154;2023-02-01T17:12:30;6.10;39.70
74364;DHT22;62797;49.740;10.154;2023-02-01T17:14:56;6.10;39.80
74364;DHT22;62797;49.740;10.154;2023-02-01T17:17:32;6.20;39.80
74364;DHT22;62797;49.740;10.154;2023-02-01T17:19:58;6.10;40.30
74364;DHT22;62797;49.740;10.154;2023-02-01T17:22:24;6.10;40.70
74364;DHT22;62797;49.740;10.154;2023-02-01T17:24:50;6.20;40.40
74364;DHT22;62797;49.740;10.154;2023-02-01T17:27:16;6.10;40.60
74364;DHT22;62797;49.740;10.154;2023-02-01T17:29:42;6.10;41.70
74364;DHT22;62797;49.740;10.154;2023-02-01T17:32:17;6.00;42.10
74364;DHT22;62797;49.740;10.154;2023-02-01T17:34:43;6.10;40.60
74364;DHT22;62797;49.740;10.154;2023-02-01T17:37:30;6.10;41.00
74364;DHT22;62797;49.740;10.154;2023-02-01T17:39:56;6.20;40.80
74364;DHT22;62797;49.740;10.154;2023-02-01T17:42:23;6.00;41.60
74364;DHT22;62797;49.740;10.154;2023-02-01T17:44:52;6.10;41.90
74364;DHT22;62797;49.740;10.154;2023-02-01T17:47:20;6.10;41.50
74364;DHT22;62797;49.740;10.154;2023-02-01T17:49:45;6.10;41.80
74364;DHT22;62797;49.740;10.154;2023-02-01T17:52:16;6.20;41.10
74364;DHT22;62797;49.740;10.154;2023-02-01T17:54:43;6.10;41.60
74364;DHT22;62797;49.740;10.154;2023-02-01T17:57:12;6.20;41.70
74364;DHT22;62797;49.740;10.154;2023-02-01T17:59:38;6.10;42.20
74364;DHT22;62797;49.740;10.154;2023-02-01T18:02:20;6.10;42.20
74364;DHT22;62797;49.740;10.154;2023-02-01T18:04:46;6.20;41.80
74364;DHT22;62797;49.740;10.154;2023-02-01T18:07:12;6.20;41.70
74364;DHT22;62797;49.740;10.154;2023-02-01T18:09:37;6.20;41.60